Terminal Aerodrome Forecast
Issued by NWS Mobile, AL

Home | Current Version | Previous Version | Text Only | Print | Product List | Glossary On
Versions: 1 2 3 4 5 6 7 8 9 10 11 12 13 14
000
FTUS44 KMOB 141735
TAFPNS
TAF
KPNS 141735Z 1418/1518 07006KT P6SM FEW040 SCT250
     FM142000 14008KT P6SM FEW050 BKN250
     FM150200 06007KT P6SM BKN250=

USA.gov is the U.S. government's official web portal to all federal, state and local government web resources and services.